Time;durP1;ratioP1;P1;durP2;ratioP2;P2;SDS_P1;SDS_P2;PMS_P1;PMS_P2;Temp;Humidity;BMP_temperature;BMP_pressure;BME280_temperature;BME280_humidity;BME280_pressure;Samples;Min_cycle;Max_cycle;Signal;HPM_P1;HPM_P2
2022/09/13 00:02:06;;;;;;;;;;;16.20;57.10;;;12.09;95.31;95263.16;5011755;28;19913;-47
2022/09/13 00:04:38;;;;;;;;;;;16.20;57.20;;;12.06;95.79;95262.94;4996135;28;19909;-49
2022/09/13 00:07:04;;;;;;;;;;;16.20;57.30;;;12.08;96.02;95260.78;5013198;28;19939;-46
2022/09/13 00:09:32;;;;;;;;;;;16.20;57.40;;;12.06;95.61;95249.59;5015530;28;19931;-48
2022/09/13 00:12:01;;;;;;;;;;;16.20;57.50;;;12.04;95.52;95252.56;4998784;28;19909;-48
2022/09/13 00:14:27;;;;;;;;;;;16.10;57.40;;;12.00;96.88;95246.16;4998463;28;19959;-46
2022/09/13 00:16:53;;;;;;;;;;;16.10;57.50;;;12.05;96.31;95256.81;5015701;28;19909;-47
2022/09/13 00:19:18;;;;;;;;;;;16.10;57.50;;;12.04;95.77;95248.00;5017029;28;19971;-47
2022/09/13 00:21:44;;;;;;;;;;;16.20;57.60;;;12.03;96.36;95248.25;4997815;28;20287;-46
2022/09/13 00:24:10;;;;;;;;;;;16.10;57.50;;;12.02;96.39;95252.81;4982387;28;19909;-47
2022/09/13 00:26:35;;;;;;;;;;;16.10;57.60;;;12.03;95.88;95253.59;5006459;28;20031;-47
2022/09/13 00:29:01;;;;;;;;;;;16.10;57.60;;;12.00;96.06;95255.00;4996270;28;19912;-47
2022/09/13 00:31:30;;;;;;;;;;;16.10;57.70;;;12.01;95.90;95248.56;5012962;28;20379;-47
2022/09/13 00:34:01;;;;;;;;;;;16.10;57.70;;;11.98;95.90;95259.81;4969036;28;19914;-46
2022/09/13 00:36:38;;;;;;;;;;;16.10;57.80;;;11.97;96.18;95249.38;5011617;28;19909;-48
2022/09/13 00:39:04;;;;;;;;;;;16.10;57.80;;;11.95;96.05;95248.91;4995005;28;20264;-47
2022/09/13 00:41:32;;;;;;;;;;;16.00;57.80;;;11.93;96.34;95243.81;4995295;28;19915;-48
2022/09/13 00:44:01;;;;;;;;;;;16.00;57.80;;;11.92;96.04;95238.78;4995580;28;19947;-48
2022/09/13 00:47:01;;;;;;;;;;;16.00;57.90;;;11.91;96.24;95239.84;4990454;28;19924;-46
2022/09/13 00:49:37;;;;;;;;;;;16.00;57.90;;;11.89;96.41;95245.47;4978593;28;19909;-48
2022/09/13 00:52:12;;;;;;;;;;;16.00;58.00;;;11.87;96.46;95247.63;4996224;28;19997;-46
2022/09/13 00:54:54;;;;;;;;;;;16.00;58.00;;;11.83;97.21;95249.22;4996153;28;20287;-46
2022/09/13 00:57:25;;;;;;;;;;;16.00;58.10;;;11.82;96.85;95253.78;5011060;28;19925;-46
2022/09/13 01:00:10;;;;;;;;;;;15.90;58.10;;;11.82;97.30;95251.09;4975830;28;19920;-46
2022/09/13 01:02:50;;;;;;;;;;;16.00;58.20;;;11.83;97.26;95254.56;5009279;28;19917;-46
2022/09/13 01:05:22;;;;;;;;;;;15.90;58.20;;;11.83;97.09;95235.88;4995509;28;20006;-50
2022/09/13 01:07:49;;;;;;;;;;;15.90;58.20;;;11.84;96.57;95245.47;4992706;28;20022;-45
2022/09/13 01:10:15;;;;;;;;;;;15.90;58.30;;;11.81;96.83;95246.84;4990952;28;19928;-45
2022/09/13 01:13:15;;;;;;;;;;;15.90;58.30;;;11.79;97.19;95246.31;4979365;28;19917;-46
2022/09/13 01:15:44;;;;;;;;;;;15.90;58.40;;;11.77;96.91;95242.34;5010661;28;19913;-46
2022/09/13 01:18:12;;;;;;;;;;;15.90;58.40;;;11.75;96.48;95236.47;4995430;28;19916;-46
2022/09/13 01:21:22;;;;;;;;;;;15.90;58.40;;;11.69;96.54;95235.75;5011495;28;19909;-46
2022/09/13 01:24:36;;;;;;;;;;;15.80;58.40;;;11.66;97.85;95241.63;4994962;28;20024;-45
2022/09/13 01:27:38;;;;;;;;;;;15.80;58.50;;;11.65;97.67;95249.91;4968081;28;19910;-47
2022/09/13 01:30:20;;;;;;;;;;;15.80;58.60;;;11.63;97.67;95255.53;5010655;28;19912;-47
2022/09/13 01:33:05;;;;;;;;;;;15.70;58.60;;;11.64;97.90;95259.78;4969348;28;19932;-46
2022/09/13 01:35:50;;;;;;;;;;;15.70;58.70;;;11.63;97.21;95257.41;5012273;28;20012;-47
2022/09/13 01:38:53;;;;;;;;;;;15.70;58.70;;;11.54;97.81;95250.00;4990384;28;19916;-47
2022/09/13 01:41:43;;;;;;;;;;;15.70;58.80;;;11.55;97.81;95242.78;5005447;28;19916;-46
2022/09/13 01:45:00;;;;;;;;;;;15.70;58.80;;;11.50;97.62;95246.28;5002349;28;19910;-46
2022/09/13 01:48:15;;;;;;;;;;;15.60;58.80;;;11.44;97.72;95251.91;5012064;28;19932;-48
2022/09/13 01:51:14;;;;;;;;;;;15.60;58.90;;;11.42;97.38;95256.75;4980197;28;19972;-49
2022/09/13 01:54:20;;;;;;;;;;;15.50;58.90;;;11.34;98.10;95261.59;4994807;28;20008;-45
2022/09/13 01:57:27;;;;;;;;;;;15.50;59.00;;;11.29;98.21;95248.28;4993589;28;19924;-48
2022/09/13 02:00:13;;;;;;;;;;;15.50;59.00;;;11.25;98.30;95249.94;5020207;23;19925;-45
2022/09/13 02:03:15;;;;;;;;;;;15.40;59.10;;;11.21;99.40;95245.41;5000288;28;19920;-44
2022/09/13 02:06:12;;;;;;;;;;;15.40;59.10;;;11.21;99.11;95248.06;4981967;28;19913;-48
2022/09/13 02:08:48;;;;;;;;;;;15.40;59.20;;;11.18;98.65;95248.63;5003128;28;20388;-45
2022/09/13 02:11:21;;;;;;;;;;;15.40;59.20;;;11.14;98.87;95251.06;5003448;28;20375;-44
2022/09/13 02:14:26;;;;;;;;;;;15.40;59.30;;;11.09;99.13;95259.88;4979755;28;19909;-48
2022/09/13 02:17:03;;;;;;;;;;;15.30;59.30;;;11.08;99.01;95257.47;4993683;28;19916;-45
2022/09/13 02:20:11;;;;;;;;;;;15.30;59.30;;;11.05;99.50;95276.69;5003755;28;20363;-48
2022/09/13 02:22:50;;;;;;;;;;;15.30;59.40;;;11.03;100.00;95265.50;4991598;28;20497;-45
2022/09/13 02:25:23;;;;;;;;;;;15.20;59.40;;;11.03;100.00;95263.66;4998603;28;20371;-47
2022/09/13 02:28:05;;;;;;;;;;;15.20;59.50;;;11.00;100.00;95260.72;4993157;28;19963;-49
2022/09/13 02:30:52;;;;;;;;;;;15.20;59.50;;;10.95;100.00;95252.75;5001585;28;19913;-46
2022/09/13 02:33:54;;;;;;;;;;;15.20;59.50;;;10.93;100.00;95253.03;4992528;28;19910;-43
2022/09/13 02:36:28;;;;;;;;;;;15.20;59.60;;;10.94;100.00;95259.97;4991416;28;19948;-44
2022/09/13 02:39:17;;;;;;;;;;;15.10;59.60;;;10.96;100.00;95268.47;4990991;28;20434;-50
2022/09/13 02:42:04;;;;;;;;;;;15.10;59.70;;;10.94;100.00;95264.50;4990489;28;19913;-49
2022/09/13 02:44:49;;;;;;;;;;;15.10;59.80;;;10.94;100.00;95259.97;5009052;28;19909;-47
2022/09/13 02:47:48;;;;;;;;;;;15.10;59.80;;;10.97;100.00;95266.59;5004985;28;19909;-47
2022/09/13 02:50:58;;;;;;;;;;;15.10;59.90;;;10.98;100.00;95260.22;5010250;28;19913;-46
2022/09/13 02:54:08;;;;;;;;;;;15.10;59.90;;;10.93;100.00;95257.56;5010988;28;19917;-50
2022/09/13 02:56:57;;;;;;;;;;;15.10;60.00;;;10.87;100.00;95249.63;4997374;28;19920;-49
2022/09/13 02:59:24;;;;;;;;;;;15.10;60.00;;;10.83;100.00;95245.88;4994501;28;19924;-49
2022/09/13 03:02:00;;;;;;;;;;;15.00;60.00;;;10.78;100.00;95239.78;5008518;28;19917;-50
2022/09/13 03:04:28;;;;;;;;;;;15.00;60.00;;;10.78;100.00;95248.59;5006366;28;19909;-51
2022/09/13 03:06:54;;;;;;;;;;;15.00;60.00;;;10.77;100.00;95240.84;4989247;28;20295;-51
2022/09/13 03:09:23;;;;;;;;;;;15.00;60.10;;;10.73;100.00;95251.25;4999497;28;19992;-48
2022/09/13 03:12:35;;;;;;;;;;;15.00;60.10;;;10.69;100.00;95244.91;5009090;28;19913;-46
2022/09/13 03:15:19;;;;;;;;;;;14.90;60.20;;;10.67;100.00;95235.56;4992135;28;19909;-47
2022/09/13 03:18:22;;;;;;;;;;;14.90;60.20;;;10.67;100.00;95232.91;5010338;28;19909;-50
2022/09/13 03:21:26;;;;;;;;;;;14.90;60.30;;;10.72;100.00;95235.53;5004999;28;20384;-50
2022/09/13 03:24:00;;;;;;;;;;;14.90;60.50;;;10.77;100.00;95238.19;5010764;28;19952;-51
2022/09/13 03:27:08;;;;;;;;;;;14.90;60.60;;;10.77;100.00;95232.84;5010046;28;19979;-51
2022/09/13 03:30:11;;;;;;;;;;;14.90;60.70;;;10.75;100.00;95242.97;4999516;28;20337;-51
2022/09/13 03:33:03;;;;;;;;;;;14.90;60.70;;;10.76;100.00;95242.72;4985534;28;26918;-52
2022/09/13 03:35:41;;;;;;;;;;;14.90;60.70;;;10.82;100.00;95248.84;5014276;28;19909;-50
2022/09/13 03:38:41;;;;;;;;;;;14.90;60.80;;;10.84;100.00;95246.66;5008681;28;19920;-49
2022/09/13 03:41:23;;;;;;;;;;;14.90;60.80;;;10.85;100.00;95246.41;4997829;28;19913;-44
2022/09/13 03:44:03;;;;;;;;;;;15.00;61.00;;;10.83;100.00;95245.88;5004838;28;19913;-44
2022/09/13 03:46:37;;;;;;;;;;;15.00;60.90;;;10.85;100.00;95250.94;5001039;28;20330;-48
2022/09/13 03:49:12;;;;;;;;;;;15.00;61.80;;;10.90;100.00;95250.91;4989297;28;19941;-49
2022/09/13 03:51:40;;;;;;;;;;;15.00;61.00;;;10.94;100.00;95259.97;4972757;28;19913;-46
2022/09/13 03:54:21;;;;;;;;;;;15.00;61.00;;;10.98;100.00;95252.22;5010521;28;19920;-49
2022/09/13 03:57:19;;;;;;;;;;;15.00;61.00;;;10.98;100.00;95255.69;4978276;28;19960;-46
2022/09/13 03:59:52;;;;;;;;;;;15.10;61.10;;;11.02;100.00;95245.25;4996146;28;19996;-44
2022/09/13 04:02:25;;;;;;;;;;;15.10;61.20;;;11.00;100.00;95250.88;5005853;28;19917;-46
2022/09/13 04:05:00;;;;;;;;;;;15.10;61.10;;;11.01;100.00;95246.34;4993438;28;19910;-46
2022/09/13 04:07:26;;;;;;;;;;;15.10;61.10;;;11.04;100.00;95245.78;5012812;28;19909;-50
2022/09/13 04:09:55;;;;;;;;;;;15.10;61.10;;;11.05;100.00;95252.69;5012495;28;19916;-47
2022/09/13 04:12:21;;;;;;;;;;;15.20;61.20;;;11.03;100.00;95246.84;5012148;28;19913;-47
2022/09/13 04:14:51;;;;;;;;;;;15.20;61.20;;;11.06;100.00;95247.13;5013282;28;20301;-46
2022/09/13 04:17:17;;;;;;;;;;;15.20;61.30;;;11.04;100.00;95251.91;5012493;28;19916;-48
2022/09/13 04:19:44;;;;;;;;;;;15.20;61.20;;;11.08;100.00;95244.16;4994800;28;19917;-50
2022/09/13 04:22:16;;;;;;;;;;;15.20;61.30;;;11.19;100.00;95247.53;4983291;28;19948;-48
2022/09/13 04:24:43;;;;;;;;;;;15.20;61.40;;;11.24;100.00;95253.66;5012671;28;19913;-46
2022/09/13 04:27:12;;;;;;;;;;;15.30;61.50;;;11.25;100.00;95263.25;5012549;28;19909;-52
2022/09/13 04:29:43;;;;;;;;;;;15.30;61.50;;;11.24;100.00;95266.19;5013060;28;19982;-44
2022/09/13 04:32:13;;;;;;;;;;;15.30;61.40;;;11.22;100.00;95271.00;4981881;28;19909;-44
2022/09/13 04:34:51;;;;;;;;;;;15.40;61.40;;;11.18;100.00;95267.28;5012425;28;19916;-47
2022/09/13 04:37:16;;;;;;;;;;;15.40;61.40;;;11.22;100.00;95260.31;5013547;28;19916;-45
2022/09/13 04:39:45;;;;;;;;;;;15.40;61.40;;;11.23;100.00;95260.06;4996338;28;19912;-45
2022/09/13 04:42:20;;;;;;;;;;;15.40;61.40;;;11.17;100.00;95269.16;5003548;28;19912;-47
2022/09/13 04:44:48;;;;;;;;;;;15.40;61.30;;;11.17;100.00;95265.72;5007022;28;20391;-44
2022/09/13 04:47:14;;;;;;;;;;;15.40;61.30;;;11.15;100.00;95265.19;4993615;28;19963;-44
2022/09/13 04:49:41;;;;;;;;;;;15.40;61.30;;;11.15;100.00;95265.97;4993385;28;20367;-45
2022/09/13 04:52:13;;;;;;;;;;;15.40;61.30;;;11.17;100.00;95253.16;5005256;28;20051;-49
2022/09/13 04:54:38;;;;;;;;;;;15.40;61.30;;;11.12;100.00;95263.84;5000172;28;19913;-48
2022/09/13 04:57:11;;;;;;;;;;;15.40;61.40;;;11.06;99.96;95263.09;4994869;28;19909;-46
2022/09/13 04:59:36;;;;;;;;;;;15.30;61.20;;;11.01;100.00;95260.47;4997026;28;19926;-45
2022/09/13 05:02:09;;;;;;;;;;;15.30;61.20;;;10.97;100.00;95261.25;4971321;28;20419;-49
2022/09/13 05:04:35;;;;;;;;;;;15.30;61.30;;;10.95;99.90;95269.53;4978132;28;19909;-47
2022/09/13 05:07:01;;;;;;;;;;;15.30;61.30;;;10.95;100.00;95274.09;4971768;28;19910;-46
2022/09/13 05:09:34;;;;;;;;;;;15.30;61.30;;;10.96;100.00;95276.47;4972356;28;19960;-48
2022/09/13 05:12:03;;;;;;;;;;;15.30;61.40;;;11.00;100.00;95277.53;4973428;28;20331;-49
2022/09/13 05:14:28;;;;;;;;;;;15.30;61.40;;;11.03;100.00;95281.50;4971939;28;19913;-45
2022/09/13 05:17:00;;;;;;;;;;;15.30;61.40;;;11.03;100.00;95284.97;4972804;28;19910;-46
2022/09/13 05:19:26;;;;;;;;;;;15.30;61.50;;;11.05;100.00;95287.34;4968968;28;19983;-44
2022/09/13 05:21:51;;;;;;;;;;;15.30;61.50;;;11.07;100.00;95288.69;4963812;28;19945;-49
2022/09/13 05:24:20;;;;;;;;;;;15.30;61.40;;;11.06;100.00;95284.44;4972512;28;19917;-45
2022/09/13 05:26:48;;;;;;;;;;;15.30;61.40;;;11.11;100.00;95286.25;4967845;28;20373;-45
2022/09/13 05:29:14;;;;;;;;;;;15.40;61.50;;;11.13;100.00;95284.13;4970197;28;20012;-47
2022/09/13 05:31:42;;;;;;;;;;;15.40;61.50;;;11.15;100.00;95289.16;4970126;28;20397;-49
2022/09/13 05:34:16;;;;;;;;;;;15.50;61.50;;;11.16;100.00;95282.78;4972088;28;19913;-45
2022/09/13 05:36:49;;;;;;;;;;;15.50;61.50;;;11.22;99.63;95285.16;4971975;28;19910;-47
2022/09/13 05:39:21;;;;;;;;;;;15.50;61.50;;;11.23;99.49;95286.72;4967817;28;19910;-47
2022/09/13 05:41:48;;;;;;;;;;;15.50;61.50;;;11.30;99.57;95286.41;4940613;28;20258;-46
2022/09/13 05:44:13;;;;;;;;;;;15.60;61.50;;;11.34;99.19;95282.94;4965615;28;19917;-47
2022/09/13 05:46:41;;;;;;;;;;;15.60;61.50;;;11.40;99.18;95277.56;4973042;28;20295;-44
2022/09/13 05:49:12;;;;;;;;;;;15.70;61.50;;;11.45;98.99;95274.88;4972443;28;19977;-45
2022/09/13 05:51:41;;;;;;;;;;;15.70;61.50;;;11.51;98.89;95271.88;4959862;28;20269;-45
2022/09/13 05:54:11;;;;;;;;;;;15.80;61.50;;;11.57;98.31;95280.66;4969994;28;19937;-44
2022/09/13 05:56:37;;;;;;;;;;;15.80;61.40;;;11.56;98.11;95269.19;4971697;28;19910;-45
2022/09/13 05:59:03;;;;;;;;;;;15.90;61.40;;;11.66;98.18;95262.97;4989946;28;19924;-45
2022/09/13 06:01:29;;;;;;;;;;;16.00;61.50;;;11.76;98.43;95273.56;5005237;28;19913;-48
2022/09/13 06:03:57;;;;;;;;;;;16.00;61.40;;;11.84;97.53;95268.69;5009836;28;19909;-47
2022/09/13 06:06:24;;;;;;;;;;;16.10;61.50;;;11.92;97.39;95274.25;4993292;28;19919;-48
2022/09/13 06:08:55;;;;;;;;;;;16.20;61.50;;;11.98;97.28;95275.81;4984180;28;19909;-44
2022/09/13 06:11:22;;;;;;;;;;;16.30;61.30;;;12.04;96.85;95276.56;4993391;28;19909;-48
2022/09/13 06:13:50;;;;;;;;;;;16.40;61.30;;;12.17;96.35;95272.44;4991755;28;19947;-45
2022/09/13 06:16:16;;;;;;;;;;;16.60;61.30;;;12.30;95.13;95266.44;4982587;28;19936;-47
2022/09/13 06:18:42;;;;;;;;;;;16.70;61.20;;;12.40;94.74;95265.53;4991817;28;19955;-46
2022/09/13 06:21:16;;;;;;;;;;;16.70;61.00;;;12.50;92.33;95274.25;4992741;28;20023;-45
2022/09/13 06:23:52;;;;;;;;;;;16.90;61.00;;;12.71;91.89;95261.44;5009336;28;19941;-48
2022/09/13 06:26:22;;;;;;;;;;;17.10;60.90;;;13.09;91.12;95261.50;4992674;28;20398;-47
2022/09/13 06:28:52;;;;;;;;;;;17.40;60.60;;;13.56;89.90;95253.66;5007204;28;20116;-47
2022/09/13 06:31:21;;;;;;;;;;;18.00;60.40;;;14.07;90.39;95247.47;4992951;28;19917;-47
2022/09/13 06:34:04;;;;;;;;;;;18.50;60.00;;;14.57;86.76;95240.44;4992477;28;19916;-50
2022/09/13 06:36:30;;;;;;;;;;;19.10;59.80;;;15.06;83.36;95231.94;4994196;28;20382;-47
2022/09/13 06:38:56;;;;;;;;;;;19.60;59.50;;;15.52;78.35;95236.31;5009693;28;20000;-47
2022/09/13 06:41:26;;;;;;;;;;;20.10;59.20;;;15.94;76.51;95237.72;5010673;28;19913;-45
2022/09/13 06:44:16;;;;;;;;;;;20.70;58.90;;;16.53;73.56;95227.59;4991501;28;19944;-49
2022/09/13 06:46:45;;;;;;;;;;;21.20;58.40;;;17.00;70.85;95232.50;5000127;28;19909;-49
2022/09/13 06:49:11;;;;;;;;;;;21.80;58.00;;;17.42;70.66;95236.34;5010405;28;19947;-44
2022/09/13 06:51:36;;;;;;;;;;;22.30;57.60;;;17.81;68.98;95234.66;5009866;28;19952;-48
2022/09/13 06:54:03;;;;;;;;;;;22.80;57.10;;;18.17;65.36;95236.94;4992514;28;19951;-47
2022/09/13 06:56:41;;;;;;;;;;;23.30;56.60;;;18.65;64.43;95235.84;4985717;28;19916;-47
2022/09/13 06:59:10;;;;;;;;;;;23.80;56.00;;;18.99;61.69;95233.31;5004862;28;19967;-46
2022/09/13 07:01:39;;;;;;;;;;;24.30;55.40;;;19.35;60.19;95230.88;5010398;28;20006;-50
2022/09/13 07:04:10;;;;;;;;;;;24.70;54.80;;;19.78;59.44;95235.19;4993721;28;20479;-52
2022/09/13 07:06:43;;;;;;;;;;;25.20;54.40;;;20.13;55.98;95231.38;4977397;28;19913;-53
2022/09/13 07:09:14;;;;;;;;;;;25.70;53.90;;;20.47;55.67;95228.28;4969576;28;19909;-49
2022/09/13 07:11:45;;;;;;;;;;;26.10;53.30;;;20.84;56.36;95231.06;4993320;28;19909;-47
2022/09/13 07:14:25;;;;;;;;;;;26.50;52.80;;;21.27;53.83;95233.16;4980315;28;20362;-50
2022/09/13 07:16:52;;;;;;;;;;;27.00;52.40;;;21.69;52.46;95230.16;5010206;28;19913;-48
2022/09/13 07:19:22;;;;;;;;;;;27.40;51.90;;;22.04;49.90;95220.66;4992634;28;19917;-48
2022/09/13 07:21:49;;;;;;;;;;;27.80;51.30;;;22.42;50.03;95230.97;4989271;28;20298;-49
2022/09/13 07:24:20;;;;;;;;;;;28.20;50.70;;;22.55;49.94;95231.69;4993581;28;20284;-45
2022/09/13 07:26:58;;;;;;;;;;;28.50;50.00;;;22.78;49.96;95221.81;5009510;28;20007;-49
2022/09/13 07:29:24;;;;;;;;;;;28.80;49.50;;;23.02;48.27;95222.75;5010037;28;20376;-46
2022/09/13 07:31:55;;;;;;;;;;;29.10;49.00;;;23.26;47.53;95219.84;5009190;28;19916;-49
2022/09/13 07:34:25;;;;;;;;;;;29.50;48.60;;;23.54;48.04;95218.88;5010926;28;19908;-48
2022/09/13 07:36:54;;;;;;;;;;;29.70;48.10;;;23.74;48.20;95216.97;4989830;28;19910;-50
2022/09/13 07:39:23;;;;;;;;;;;30.00;47.70;;;23.99;45.61;95220.97;5007460;28;19962;-46
2022/09/13 07:41:52;;;;;;;;;;;30.30;47.30;;;24.30;45.04;95227.38;4996677;28;19917;-49
2022/09/13 07:44:18;;;;;;;;;;;30.60;46.90;;;24.63;45.68;95218.69;4993046;28;20521;-51
2022/09/13 07:46:44;;;;;;;;;;;30.90;46.60;;;24.74;44.61;95218.06;5014502;28;19917;-47
2022/09/13 07:49:15;;;;;;;;;;;31.20;46.10;;;25.05;43.88;95206.88;4996309;28;20015;-52
2022/09/13 07:51:42;;;;;;;;;;;31.60;45.80;;;25.38;43.82;95208.16;5013405;28;19920;-46
2022/09/13 07:54:16;;;;;;;;;;;31.80;45.20;;;25.73;45.10;95226.13;4996650;28;19920;-49
2022/09/13 07:56:51;;;;;;;;;;;32.10;44.80;;;26.13;41.89;95235.59;4988485;28;20340;-48
2022/09/13 07:59:18;;;;;;;;;;;32.40;45.10;;;26.31;40.99;95239.31;5028426;23;20382;-46
2022/09/13 08:01:50;;;;;;;;;;;32.70;44.10;;;26.62;41.57;95240.03;5013017;28;20272;-45
2022/09/13 08:04:20;;;;;;;;;;;32.90;43.70;;;26.62;40.16;95240.81;4996285;28;19916;-49
2022/09/13 08:06:46;;;;;;;;;;;33.20;43.30;;;26.90;40.60;95232.09;4996651;28;19909;-51
2022/09/13 08:09:14;;;;;;;;;;;33.30;42.90;;;27.07;39.85;95232.59;4986068;28;20256;-48
2022/09/13 08:11:46;;;;;;;;;;;33.50;42.70;;;26.89;40.85;95233.28;4976542;28;19917;-46
2022/09/13 08:14:18;;;;;;;;;;;33.50;42.30;;;27.06;40.67;95236.50;4973722;28;19914;-46
2022/09/13 08:16:44;;;;;;;;;;;33.60;41.80;;;26.98;40.13;95239.19;4990633;28;19913;-51
2022/09/13 08:19:17;;;;;;;;;;;33.70;41.70;;;27.12;40.90;95241.25;4993911;28;20359;-46
2022/09/13 08:21:52;;;;;;;;;;;33.70;41.40;;;26.81;41.55;95239.81;4975380;28;20295;-45
2022/09/13 08:24:20;;;;;;;;;;;33.80;41.20;;;26.99;39.02;95232.56;4983278;28;19953;-45
2022/09/13 08:26:46;;;;;;;;;;;33.90;41.00;;;27.22;39.71;95223.38;4993563;28;19932;-53
2022/09/13 08:29:16;;;;;;;;;;;34.00;40.70;;;27.14;39.17;95222.56;4973017;28;19956;-46
2022/09/13 08:31:42;;;;;;;;;;;34.20;40.50;;;27.24;38.75;95215.59;4989255;28;19921;-50
2022/09/13 08:34:14;;;;;;;;;;;34.30;40.10;;;27.43;39.00;95225.47;4973242;28;19920;-47
2022/09/13 08:36:40;;;;;;;;;;;34.50;40.00;;;27.80;38.14;95221.78;4992933;28;19937;-46
2022/09/13 08:39:08;;;;;;;;;;;34.60;39.60;;;27.99;37.32;95217.97;4993778;28;20037;-46
2022/09/13 08:41:46;;;;;;;;;;;34.80;39.50;;;28.15;37.82;95218.41;4960681;28;19956;-46
2022/09/13 08:45:00;;;;;;;;;;;35.00;39.20;;;28.55;37.23;95222.03;4987731;28;19909;-46
2022/09/13 08:47:41;;;;;;;;;;;35.10;39.00;;;28.83;36.46;95224.81;4983674;28;20005;-46
2022/09/13 08:50:33;;;;;;;;;;;35.40;38.80;;;29.11;35.40;95223.25;4993730;28;19914;-48
2022/09/13 08:53:44;;;;;;;;;;;35.60;38.50;;;29.43;35.22;95220.47;4996849;28;19959;-46
2022/09/13 08:56:17;;;;;;;;;;;35.80;38.10;;;29.44;34.85;95208.31;4991340;28;19914;-42
2022/09/13 08:59:51;;;;;;;;;;;36.00;37.80;;;29.55;35.41;95218.47;4975870;28;20002;-50
2022/09/13 09:03:00;;;;;;;;;;;36.30;37.50;;;29.68;35.56;95220.44;4927615;28;19966;-52
2022/09/13 09:05:31;;;;;;;;;;;36.50;37.10;;;29.59;34.92;95222.78;4979373;28;20009;-49
2022/09/13 09:08:26;;;;;;;;;;;36.70;36.80;;;29.64;35.03;95205.94;4994080;28;20499;-49
2022/09/13 09:10:56;;;;;;;;;;;36.80;36.30;;;29.54;34.08;95216.91;4991327;28;19920;-48
2022/09/13 09:14:01;;;;;;;;;;;36.80;35.80;;;29.73;34.84;95220.03;4993254;28;19921;-52
2022/09/13 09:16:58;;;;;;;;;;;36.80;35.60;;;29.95;34.46;95215.22;4981757;28;19909;-49
2022/09/13 09:19:54;;;;;;;;;;;36.90;35.50;;;29.86;34.12;95220.38;4985657;28;20000;-51
2022/09/13 09:22:23;;;;;;;;;;;37.10;35.50;;;29.90;34.21;95221.16;4993161;28;19924;-48
2022/09/13 09:24:57;;;;;;;;;;;37.20;35.00;;;30.32;32.76;95222.16;4975261;28;19913;-48
2022/09/13 09:27:30;;;;;;;;;;;37.30;34.80;;;30.48;32.77;95218.91;4990076;28;19972;-48
2022/09/13 09:30:02;;;;;;;;;;;37.50;34.70;;;30.38;32.11;95219.78;4981065;28;19909;-48
2022/09/13 09:33:21;;;;;;;;;;;37.60;34.20;;;30.96;31.19;95217.44;4990795;28;20325;-48
2022/09/13 09:36:20;;;;;;;;;;;37.70;34.00;;;31.46;30.46;95211.50;4973299;28;20272;-48
2022/09/13 09:38:46;;;;;;;;;;;38.00;33.80;;;31.87;31.08;95216.97;4991773;28;19914;-53
2022/09/13 09:41:30;;;;;;;;;;;38.30;33.60;;;32.03;29.07;95205.38;4985703;28;19989;-48
2022/09/13 09:44:19;;;;;;;;;;;38.60;33.20;;;32.07;29.13;95202.59;4959770;28;20020;-53
2022/09/13 09:47:11;;;;;;;;;;;38.80;32.90;;;32.24;28.66;95205.09;4992339;28;19909;-49
2022/09/13 09:50:23;;;;;;;;;;;39.00;32.80;;;32.26;28.67;95196.41;4938937;28;19914;-52
2022/09/13 09:53:32;;;;;;;;;;;39.10;32.30;;;32.38;28.39;95198.63;4978971;28;19913;-50
2022/09/13 09:56:11;;;;;;;;;;;39.30;32.30;;;32.65;28.23;95193.13;4888756;29;19945;-50
2022/09/13 09:58:44;;;;;;;;;;;39.50;32.00;;;32.87;29.61;95192.78;4847523;29;28949;-49
2022/09/13 10:01:33;;;;;;;;;;;39.70;31.70;;;33.12;28.99;95189.63;4950521;28;19917;-51
2022/09/13 10:04:23;;;;;;;;;;;39.80;31.50;;;33.47;27.95;95190.19;4966807;28;19917;-48
2022/09/13 10:07:08;;;;;;;;;;;40.10;31.40;;;33.38;27.57;95188.00;4962572;28;19959;-50
2022/09/13 10:09:59;;;;;;;;;;;40.30;31.20;;;33.48;27.42;95187.03;4954191;28;19917;-52
2022/09/13 10:12:36;;;;;;;;;;;40.50;30.90;;;33.61;28.89;95182.47;4969845;28;19964;-54
2022/09/13 10:15:25;;;;;;;;;;;40.50;30.60;;;33.92;27.88;95182.25;4970394;28;19910;-48
2022/09/13 10:18:22;;;;;;;;;;;40.70;30.40;;;34.29;28.80;95181.09;4967887;28;19910;-52
2022/09/13 10:21:20;;;;;;;;;;;41.00;30.40;;;34.38;27.67;95176.94;4928754;28;19953;-53
2022/09/13 10:23:52;;;;;;;;;;;41.20;30.10;;;34.51;27.44;95156.50;4950420;28;20388;-51
2022/09/13 10:26:23;;;;;;;;;;;41.40;30.00;;;34.81;28.07;95164.91;4926235;28;20389;-48
2022/09/13 10:28:57;;;;;;;;;;;41.70;29.90;;;35.08;27.01;95165.47;4964982;28;20393;-50
2022/09/13 10:31:36;;;;;;;;;;;41.90;29.80;;;34.89;26.23;95163.56;4961986;28;20012;-51
2022/09/13 10:34:32;;;;;;;;;;;42.10;29.60;;;34.78;26.46;95155.50;4969948;28;19943;-50
2022/09/13 10:37:34;;;;;;;;;;;42.40;29.50;;;34.71;25.46;95144.63;4972097;28;19936;-49
2022/09/13 10:40:21;;;;;;;;;;;42.60;29.20;;;34.74;25.34;95141.75;4970976;28;20315;-50
2022/09/13 10:42:58;;;;;;;;;;;42.60;28.90;;;34.84;25.16;95153.78;4954847;28;19992;-50
2022/09/13 10:45:30;;;;;;;;;;;42.60;28.70;;;34.88;26.57;95150.91;4938328;28;19909;-51
2022/09/13 10:48:15;;;;;;;;;;;42.50;28.70;;;35.07;25.22;95155.63;4971745;28;19920;-48
2022/09/13 10:51:30;;;;;;;;;;;42.60;28.60;;;35.10;25.93;95159.47;4970118;28;19910;-48
2022/09/13 10:54:09;;;;;;;;;;;42.60;28.40;;;35.11;25.31;95153.53;4940403;28;19913;-52
2022/09/13 10:56:35;;;;;;;;;;;42.70;28.20;;;35.31;26.58;95152.63;4971395;28;20332;-52
2022/09/13 10:59:30;;;;;;;;;;;42.90;28.10;;;35.33;26.20;95148.19;4962425;28;19917;-51
2022/09/13 11:01:59;;;;;;;;;;;43.10;28.00;;;35.29;25.43;95130.91;4988866;28;19914;-50
2022/09/13 11:05:13;;;;;;;;;;;43.20;27.80;;;35.45;25.34;95136.41;4982163;28;19909;-53
2022/09/13 11:08:12;;;;;;;;;;;43.30;27.70;;;35.74;24.63;95141.16;5005534;28;20462;-49
2022/09/13 11:11:19;;;;;;;;;;;43.40;27.60;;;35.56;23.85;95133.34;4969387;28;19921;-49
2022/09/13 11:13:57;;;;;;;;;;;43.40;27.50;;;35.22;23.66;95123.56;5005745;28;20387;-53
2022/09/13 11:16:48;;;;;;;;;;;43.20;27.50;;;35.32;24.55;95130.03;4998450;28;19917;-51
2022/09/13 11:20:00;;;;;;;;;;;43.10;27.50;;;35.60;24.67;95130.47;4989978;28;19917;-52
2022/09/13 11:23:01;;;;;;;;;;;42.90;27.50;;;35.75;23.96;95128.88;4983423;28;19918;-51
2022/09/13 11:25:38;;;;;;;;;;;42.90;27.50;;;35.79;24.62;95126.78;4990953;28;19913;-50
2022/09/13 11:29:03;;;;;;;;;;;42.60;27.50;;;35.73;27.36;95106.38;4977031;28;19933;-51
2022/09/13 11:31:56;;;;;;;;;;;42.50;27.60;;;35.74;26.59;95102.41;4989219;28;20012;-49
2022/09/13 11:34:37;;;;;;;;;;;42.40;27.60;;;35.94;26.40;95095.88;4980168;28;20028;-49
2022/09/13 11:37:43;;;;;;;;;;;42.60;27.50;;;35.88;26.93;95090.91;4984375;28;20327;-52
2022/09/13 11:40:31;;;;;;;;;;;42.80;27.40;;;35.80;23.49;95089.56;4997994;28;19947;-50
2022/09/13 11:43:20;;;;;;;;;;;43.10;27.20;;;36.06;25.34;95086.84;4984012;28;19909;-49
2022/09/13 11:46:10;;;;;;;;;;;43.30;27.00;;;36.43;24.94;95076.94;4977860;28;19964;-54
2022/09/13 11:48:56;;;;;;;;;;;43.60;26.80;;;36.40;26.26;95069.53;4990810;28;20238;-51
2022/09/13 11:52:10;;;;;;;;;;;43.90;27.20;;;36.28;23.43;95065.53;4991990;28;20020;-51
2022/09/13 11:54:42;;;;;;;;;;;43.90;26.70;;;36.13;25.84;95070.78;4971014;28;20282;-51
2022/09/13 11:57:20;;;;;;;;;;;43.60;26.60;;;35.96;25.72;95066.50;4970177;28;19924;-55
2022/09/13 12:00:16;;;;;;;;;;;43.50;26.70;;;35.35;26.16;95067.47;4982898;28;19963;-54
2022/09/13 12:03:01;;;;;;;;;;;43.20;26.70;;;34.83;25.59;95065.72;4988386;28;19909;-52
2022/09/13 12:05:38;;;;;;;;;;;42.90;26.70;;;34.75;25.13;95071.41;4990901;28;20371;-50
2022/09/13 12:08:25;;;;;;;;;;;42.60;26.70;;;34.63;26.66;95074.91;4972892;28;20067;-54
2022/09/13 12:11:28;;;;;;;;;;;42.40;26.70;;;34.51;26.23;95070.03;4973250;28;19910;-54